createdAt,value
2022-11-10T00:05:00.080Z,1.10
2022-11-10T00:10:28.673Z,1.10
2022-11-10T00:16:11.835Z,1.20
2022-11-10T00:21:40.737Z,1.05
2022-11-10T00:27:05.528Z,1.40
2022-11-10T00:32:33.665Z,1.35
2022-11-10T00:37:56.923Z,1.23
2022-11-10T00:43:26.225Z,1.02
2022-11-10T00:49:14.325Z,1.20
2022-11-10T00:54:43.241Z,1.10
2022-11-10T01:00:10.532Z,1.38
2022-11-10T01:05:43.919Z,1.30
2022-11-10T01:11:09.805Z,1.23
2022-11-10T01:16:36.652Z,1.27
2022-11-10T01:22:09.835Z,1.13
2022-11-10T01:27:41.248Z,1.10
2022-11-10T01:33:10.524Z,1.00
2022-11-10T01:38:36.840Z,1.53
2022-11-10T01:44:18.488Z,1.30
2022-11-10T01:49:43.753Z,1.30
2022-11-10T01:55:23.837Z,1.20
2022-11-10T02:00:50.596Z,1.50
2022-11-10T02:06:15.414Z,1.30
2022-11-10T02:11:42.950Z,1.30
2022-11-10T02:17:07.273Z,1.00
2022-11-10T02:22:32.729Z,1.10
2022-11-10T02:28:00.133Z,1.40
2022-11-10T02:33:24.961Z,0.97
2022-11-10T02:38:54.606Z,1.23
2022-11-10T02:44:18.603Z,1.43
2022-11-10T02:50:01.124Z,1.37
2022-11-10T02:55:29.796Z,1.17
2022-11-10T03:00:56.493Z,1.10
2022-11-10T03:06:25.343Z,1.17
2022-11-10T03:12:00.895Z,1.40
2022-11-10T03:17:24.463Z,1.30
2022-11-10T03:22:59.624Z,1.63
2022-11-10T03:28:31.351Z,1.50
2022-11-10T03:33:58.527Z,1.27
2022-11-10T03:39:27.640Z,1.20
2022-11-10T03:44:56.712Z,1.07
2022-11-10T03:50:33.453Z,1.20
2022-11-10T03:55:56.686Z,1.37
2022-11-10T04:01:32.944Z,1.20
2022-11-10T04:07:18.310Z,1.00
2022-11-10T04:12:59.349Z,1.30
2022-11-10T04:18:27.251Z,1.23
2022-11-10T04:23:58.819Z,1.13
2022-11-10T04:29:23.638Z,1.00
2022-11-10T04:34:49.622Z,1.37
2022-11-10T04:40:14.983Z,1.20
2022-11-10T04:45:38.865Z,1.53
2022-11-10T04:51:13.349Z,1.43
2022-11-10T04:56:36.793Z,1.50
2022-11-10T05:02:01.911Z,1.73
2022-11-10T05:07:27.932Z,1.40
2022-11-10T05:12:53.251Z,1.80
2022-11-10T05:18:21.531Z,1.37
2022-11-10T05:23:49.264Z,1.73
2022-11-10T05:29:19.069Z,1.30
2022-11-10T05:34:58.168Z,1.30
2022-11-10T05:46:13.755Z,1.50
2022-11-10T05:51:39.281Z,1.57
2022-11-10T05:57:18.699Z,1.50
2022-11-10T06:02:54.547Z,1.27
2022-11-10T06:08:21.413Z,1.53
2022-11-10T06:13:57.357Z,1.57
2022-11-10T06:19:37.971Z,1.57
2022-11-10T06:31:02.169Z,1.50
2022-11-10T06:36:27.602Z,1.70
2022-11-10T06:42:00.071Z,1.07
2022-11-10T06:47:46.529Z,1.70
2022-11-10T06:53:14.137Z,1.50
2022-11-10T06:58:39.168Z,1.30
2022-11-10T07:04:20.340Z,1.60
2022-11-10T07:09:49.914Z,1.80
2022-11-10T07:15:24.397Z,1.87
2022-11-10T07:20:52.818Z,1.70
2022-11-10T07:26:27.721Z,1.57
2022-11-10T07:31:56.635Z,1.80
2022-11-10T07:37:22.262Z,1.80
2022-11-10T07:42:48.529Z,1.40
2022-11-10T07:48:14.900Z,1.40
2022-11-10T07:53:42.972Z,1.40
2022-11-10T07:59:07.323Z,1.40
2022-11-10T08:04:47.469Z,1.30
2022-11-10T08:10:16.993Z,1.40
2022-11-10T08:15:40.319Z,1.57
2022-11-10T08:21:06.016Z,1.73
2022-11-10T08:26:32.108Z,1.42
2022-11-10T08:32:14.565Z,1.58
2022-11-10T08:37:42.558Z,1.50
2022-11-10T08:43:12.426Z,1.75
2022-11-10T08:48:39.003Z,1.55
2022-11-10T08:54:10.599Z,1.58
2022-11-10T08:59:35.954Z,1.38
2022-11-10T09:04:59.919Z,1.60
2022-11-10T09:10:24.744Z,1.75
2022-11-10T09:15:53.830Z,1.63
2022-11-10T09:21:19.695Z,1.60
2022-11-10T09:26:45.698Z,1.77
2022-11-10T09:32:15.636Z,1.63
2022-11-10T09:37:42.453Z,1.95
2022-11-10T09:43:12.409Z,1.77
2022-11-10T09:48:48.342Z,1.92
2022-11-10T09:54:26.802Z,1.88
2022-11-10T10:00:01.132Z,1.77
2022-11-10T10:05:54.186Z,1.63
2022-11-10T10:11:30.062Z,2.13
2022-11-10T10:17:04.334Z,1.60
2022-11-10T10:22:58.270Z,1.63
2022-11-10T10:28:33.265Z,1.63
2022-11-10T10:34:00.172Z,1.63
2022-11-10T10:39:31.921Z,2.30
2022-11-10T10:45:31.483Z,2.17
2022-11-10T10:50:53.878Z,2.10
2022-11-10T10:56:28.457Z,1.80
2022-11-10T11:01:57.122Z,1.40
2022-11-10T11:07:28.458Z,2.00
2022-11-10T11:12:56.834Z,2.00
2022-11-10T11:18:36.157Z,1.90
2022-11-10T11:24:21.639Z,2.15
2022-11-10T11:30:03.677Z,2.00
2022-11-10T11:35:55.763Z,1.95
2022-11-10T11:41:42.662Z,1.88
2022-11-10T11:47:20.826Z,2.10
2022-11-10T11:52:56.939Z,2.30
2022-11-10T11:58:35.893Z,2.20
2022-11-10T12:04:38.083Z,2.05
2022-11-10T12:10:27.543Z,1.80
2022-11-10T12:15:59.399Z,1.85
2022-11-10T12:21:37.402Z,1.92
2022-11-10T12:27:20.170Z,1.92
2022-11-10T12:32:48.891Z,2.15
2022-11-10T12:38:21.806Z,2.35
2022-11-10T12:44:06.132Z,1.70
2022-11-10T12:49:34.972Z,1.80
2022-11-10T12:55:01.230Z,1.70
2022-11-10T13:00:31.227Z,1.88
2022-11-10T13:06:09.456Z,1.70
2022-11-10T13:11:40.876Z,1.63
2022-11-10T13:17:42.524Z,1.90
2022-11-10T13:29:32.183Z,1.75
2022-11-10T13:35:19.437Z,2.10
2022-11-10T13:40:59.093Z,2.00
2022-11-10T13:46:23.515Z,1.60
2022-11-10T13:51:57.233Z,1.95
2022-11-10T13:57:30.047Z,2.10
2022-11-10T14:03:01.444Z,2.05
2022-11-10T14:08:46.687Z,2.65
2022-11-10T14:14:20.444Z,1.80
2022-11-10T14:19:46.758Z,1.92
2022-11-10T14:25:24.764Z,1.58
2022-11-10T14:30:58.440Z,1.70
2022-11-10T14:36:23.963Z,2.10
2022-11-10T14:41:53.573Z,1.70
2022-11-10T14:47:34.111Z,1.98
2022-11-10T14:53:03.094Z,1.98
2022-11-10T14:58:30.367Z,1.73
2022-11-10T15:03:54.518Z,2.00
2022-11-10T15:09:28.158Z,1.98
2022-11-10T15:15:04.545Z,1.90
2022-11-10T15:20:45.536Z,2.00
2022-11-10T15:26:31.563Z,1.90
2022-11-10T15:31:59.966Z,1.90
2022-11-10T15:37:31.229Z,1.75
2022-11-10T15:42:43.800Z,2.70
2022-11-10T15:48:15.253Z,1.95
2022-11-10T15:53:25.159Z,1.80
2022-11-10T15:58:36.108Z,2.10
2022-11-10T16:03:59.612Z,2.00
2022-11-10T16:09:33.710Z,2.58
2022-11-10T16:14:47.195Z,2.72
2022-11-10T16:20:15.985Z,1.75
2022-11-10T16:25:27.727Z,1.73
2022-11-10T16:30:32.721Z,2.20
2022-11-10T16:35:39.599Z,2.45
2022-11-10T16:40:49.258Z,2.15
2022-11-10T16:46:02.657Z,3.15
2022-11-10T16:51:13.621Z,2.45
2022-11-10T16:56:21.985Z,2.63
2022-11-10T17:01:41.043Z,2.22
2022-11-10T17:06:52.381Z,2.20
2022-11-10T17:12:05.404Z,3.03
2022-11-10T17:17:20.441Z,2.97
2022-11-10T17:22:36.419Z,2.67
2022-11-10T17:27:41.324Z,2.83
2022-11-10T17:33:05.829Z,3.13
2022-11-10T17:38:26.948Z,3.80
2022-11-10T17:43:35.190Z,3.33
2022-11-10T17:48:42.161Z,3.80
2022-11-10T17:53:54.058Z,3.00
2022-11-10T17:59:01.680Z,2.07
2022-11-10T18:04:15.687Z,3.33
2022-11-10T18:09:32.175Z,2.50
2022-11-10T18:14:39.914Z,3.30
2022-11-10T18:19:47.384Z,3.07
2022-11-10T18:24:53.844Z,2.97
2022-11-10T18:30:02.811Z,3.27
2022-11-10T18:35:08.453Z,3.07
2022-11-10T18:40:20.347Z,3.13
2022-11-10T18:45:28.616Z,3.10
2022-11-10T18:50:34.200Z,2.80
2022-11-10T18:55:45.809Z,3.13
2022-11-10T19:00:52.926Z,3.30
2022-11-10T19:06:08.010Z,4.37
2022-11-10T19:11:20.449Z,3.93
2022-11-10T19:16:26.306Z,4.20
2022-11-10T19:21:50.437Z,4.50
2022-11-10T19:27:08.829Z,4.90
2022-11-10T19:32:15.202Z,3.70
2022-11-10T19:37:23.603Z,3.07
2022-11-10T19:42:38.153Z,3.23
2022-11-10T19:47:43.729Z,3.97
2022-11-10T19:52:50.829Z,3.50
2022-11-10T19:58:15.457Z,3.83
2022-11-10T20:03:31.038Z,3.30
2022-11-10T20:08:39.124Z,3.77
2022-11-10T20:13:54.403Z,3.70
2022-11-10T20:19:19.660Z,4.93
2022-11-10T20:24:31.003Z,4.83
2022-11-10T20:29:41.047Z,4.17
2022-11-10T20:34:49.800Z,3.60
2022-11-10T20:40:37.561Z,3.27
2022-11-10T20:45:40.556Z,3.60
2022-11-10T20:50:47.607Z,3.33
2022-11-10T20:56:06.873Z,3.57
2022-11-10T21:01:18.980Z,3.40
2022-11-10T21:06:25.846Z,3.93
2022-11-10T21:11:47.421Z,3.87
2022-11-10T21:16:58.272Z,3.80
2022-11-10T21:22:07.365Z,3.40
2022-11-10T21:27:15.626Z,4.10
2022-11-10T21:32:38.141Z,4.23
2022-11-10T21:37:51.509Z,4.00
2022-11-10T21:43:04.666Z,3.63
2022-11-10T21:48:25.576Z,3.20
2022-11-10T21:53:36.589Z,3.50
2022-11-10T21:58:43.596Z,3.47
2022-11-10T22:03:50.655Z,3.67
2022-11-10T22:09:02.437Z,3.37
2022-11-10T22:14:32.690Z,3.40
2022-11-10T22:19:39.238Z,2.90
2022-11-10T22:25:01.871Z,3.47
2022-11-10T22:30:14.664Z,3.47
2022-11-10T22:35:39.783Z,3.30
2022-11-10T22:41:08.167Z,3.40
2022-11-10T22:46:16.884Z,3.93
2022-11-10T22:51:24.551Z,3.57
2022-11-10T22:56:49.010Z,3.67
2022-11-10T23:01:58.134Z,4.37
2022-11-10T23:07:18.334Z,3.93
2022-11-10T23:12:33.872Z,3.50
2022-11-10T23:17:44.942Z,3.20
2022-11-10T23:22:53.660Z,3.00
2022-11-10T23:27:58.996Z,2.70
2022-11-10T23:33:05.289Z,3.30
2022-11-10T23:38:16.369Z,3.50
2022-11-10T23:43:37.435Z,3.17
2022-11-10T23:48:54.208Z,3.60
2022-11-10T23:54:05.871Z,3.90
2022-11-10T23:59:10.608Z,4.20
